Time;durP1;ratioP1;P1;durP2;ratioP2;P2;SDS_P1;SDS_P2;PMS_P1;PMS_P2;Temp;Humidity;BMP_temperature;BMP_pressure;BME280_temperature;BME280_humidity;BME280_pressure;Samples;Min_cycle;Max_cycle;Signal;HPM_P1;HPM_P2
2021/05/12 00:01:54;;;;;;;0.70;0.55;;;13.50;99.90;;;;;;5006681;28;20102;-80
2021/05/12 00:23:38;;;;;;;0.60;0.60;;;13.40;99.90;;;;;;5009205;28;20051;-81
2021/05/12 00:29:51;;;;;;;0.50;0.50;;;13.40;99.90;;;;;;5010939;28;20560;-79
2021/05/12 00:36:23;;;;;;;0.60;0.50;;;13.40;99.90;;;;;;4998433;28;20072;-77
2021/05/12 00:38:49;;;;;;;0.60;0.50;;;13.30;99.90;;;;;;5029410;22;20037;-79
2021/05/12 00:41:17;;;;;;;0.55;0.55;;;13.30;99.90;;;;;;5032227;28;20029;-81
2021/05/12 00:43:43;;;;;;;0.43;0.43;;;13.30;99.90;;;;;;5013391;28;20373;-80
2021/05/12 00:46:09;;;;;;;0.47;0.47;;;13.30;99.90;;;;;;5053154;28;20074;-80
2021/05/12 00:48:36;;;;;;;0.73;0.45;;;13.30;99.90;;;;;;5041951;28;20037;-80
2021/05/12 00:51:02;;;;;;;0.52;0.52;;;13.30;99.90;;;;;;5021171;28;20048;-80
2021/05/12 00:53:28;;;;;;;0.80;0.60;;;13.30;99.90;;;;;;5047829;28;20034;-80
2021/05/12 00:55:54;;;;;;;0.60;0.60;;;13.30;99.90;;;;;;5042832;28;20060;-79
2021/05/12 00:58:19;;;;;;;0.50;0.50;;;13.30;99.90;;;;;;5060522;28;20082;-80
2021/05/12 01:00:45;;;;;;;0.50;0.47;;;13.30;99.90;;;;;;5053276;28;20033;-79
2021/05/12 01:03:11;;;;;;;0.60;0.52;;;13.20;99.90;;;;;;5057918;28;20060;-80
2021/05/12 01:05:37;;;;;;;1.48;0.70;;;13.20;99.90;;;;;;5050763;28;20036;-80
2021/05/12 01:08:05;;;;;;;0.40;0.40;;;13.30;99.90;;;;;;5054223;28;20029;-80
2021/05/12 01:10:32;;;;;;;0.77;0.73;;;13.20;99.90;;;;;;5055557;28;20045;-80
2021/05/12 01:12:59;;;;;;;0.73;0.50;;;13.20;99.90;;;;;;5035760;28;20112;-79
2021/05/12 01:15:26;;;;;;;0.50;0.50;;;13.20;99.90;;;;;;5058464;28;20039;-80
2021/05/12 01:17:53;;;;;;;0.45;0.45;;;13.20;99.90;;;;;;5041693;28;20124;-81
2021/05/12 01:20:19;;;;;;;0.70;0.60;;;13.20;99.90;;;;;;5048438;28;20476;-80
2021/05/12 01:22:45;;;;;;;0.60;0.60;;;13.10;99.90;;;;;;5041510;28;20025;-80
2021/05/12 01:25:11;;;;;;;0.65;0.65;;;13.10;99.90;;;;;;5051105;28;20039;-79
2021/05/12 01:27:37;;;;;;;0.52;0.52;;;13.10;99.90;;;;;;5059365;28;20028;-80
2021/05/12 01:30:05;;;;;;;0.70;0.70;;;13.10;99.90;;;;;;5024994;28;20447;-79
2021/05/12 01:32:36;;;;;;;0.60;0.60;;;13.10;99.90;;;;;;5034515;28;20117;-80
2021/05/12 01:35:09;;;;;;;1.05;0.80;;;13.00;99.90;;;;;;5019518;28;20263;-80
2021/05/12 01:37:35;;;;;;;3.42;0.80;;;13.00;99.90;;;;;;5033122;28;20041;-80
2021/05/12 01:40:08;;;;;;;0.95;0.82;;;13.00;99.90;;;;;;5056307;28;20024;-81
2021/05/12 01:42:34;;;;;;;0.73;0.73;;;13.00;99.90;;;;;;5058440;28;20013;-81
2021/05/12 01:45:08;;;;;;;1.95;0.60;;;13.00;99.90;;;;;;5024556;28;20103;-81
2021/05/12 01:47:34;;;;;;;0.73;0.73;;;13.00;99.90;;;;;;5040864;28;20508;-81
2021/05/12 01:50:06;;;;;;;1.35;0.70;;;13.00;99.90;;;;;;5021415;28;20025;-81
2021/05/12 01:52:45;;;;;;;0.70;0.70;;;13.00;99.90;;;;;;5030659;28;20091;-81
2021/05/12 01:55:13;;;;;;;0.70;0.70;;;13.00;99.90;;;;;;5040031;28;20072;-79
2021/05/12 01:57:44;;;;;;;0.98;0.60;;;13.00;99.90;;;;;;5059143;28;20063;-80
2021/05/12 02:00:30;;;;;;;0.88;0.85;;;13.00;99.90;;;;;;5036951;28;20549;-80
2021/05/12 02:02:56;;;;;;;1.38;0.68;;;13.00;99.90;;;;;;5053278;28;20039;-79
2021/05/12 02:05:23;;;;;;;1.83;0.68;;;13.00;99.90;;;;;;5040089;28;20111;-81
2021/05/12 02:08:01;;;;;;;2.13;0.80;;;13.10;99.90;;;;;;5054452;28;20095;-80
2021/05/12 02:10:28;;;;;;;0.90;0.80;;;13.10;99.90;;;;;;5017892;28;20075;-81
2021/05/12 02:12:55;;;;;;;3.38;0.75;;;13.10;99.90;;;;;;5039434;28;20091;-80
2021/05/12 02:15:21;;;;;;;0.85;0.73;;;13.00;99.90;;;;;;5041541;28;20033;-80
2021/05/12 02:17:47;;;;;;;0.70;0.70;;;13.00;99.90;;;;;;5025927;28;20445;-80
2021/05/12 02:20:16;;;;;;;0.75;0.75;;;13.00;99.90;;;;;;5036253;28;20021;-80
2021/05/12 02:22:41;;;;;;;0.65;0.65;;;13.00;99.90;;;;;;5028253;28;20025;-80
2021/05/12 02:25:08;;;;;;;1.73;0.80;;;13.00;99.90;;;;;;5012425;28;20366;-80
2021/05/12 02:27:34;;;;;;;1.05;0.95;;;13.00;99.90;;;;;;5025172;28;20040;-80
2021/05/12 02:30:03;;;;;;;0.90;0.70;;;13.00;99.90;;;;;;5049891;28;20033;-79
2021/05/12 02:32:29;;;;;;;0.80;0.68;;;13.10;99.90;;;;;;5016638;28;20404;-80
2021/05/12 02:34:55;;;;;;;2.42;1.10;;;13.10;99.90;;;;;;5048924;28;20061;-80
2021/05/12 02:37:22;;;;;;;0.80;0.80;;;13.10;99.90;;;;;;5055240;28;20114;-81
2021/05/12 02:39:48;;;;;;;0.90;0.90;;;13.10;99.90;;;;;;5050758;28;20030;-82
2021/05/12 02:42:14;;;;;;;1.00;0.90;;;13.10;99.90;;;;;;5037182;28;20036;-81
2021/05/12 02:44:40;;;;;;;0.88;0.88;;;13.00;99.90;;;;;;4994455;28;20040;-80
2021/05/12 02:47:06;;;;;;;0.95;0.82;;;13.00;99.90;;;;;;5034014;28;20041;-81
2021/05/12 02:49:32;;;;;;;2.30;0.95;;;13.00;99.90;;;;;;5051002;28;20036;-81
2021/05/12 02:51:57;;;;;;;0.70;0.65;;;13.00;99.90;;;;;;5049329;28;20384;-80
2021/05/12 02:54:23;;;;;;;0.70;0.70;;;13.00;99.90;;;;;;5054930;28;20029;-80
2021/05/12 02:56:49;;;;;;;0.93;0.90;;;13.00;99.90;;;;;;5032544;28;20051;-81
2021/05/12 02:59:14;;;;;;;2.00;1.02;;;13.00;99.90;;;;;;5035431;28;20224;-80
2021/05/12 03:01:40;;;;;;;0.95;0.80;;;13.00;99.90;;;;;;5017045;28;20029;-82
2021/05/12 03:04:06;;;;;;;0.80;0.80;;;13.00;99.90;;;;;;5045720;28;20040;-80
2021/05/12 03:06:32;;;;;;;1.05;0.88;;;12.90;99.90;;;;;;5055379;28;20020;-81
2021/05/12 03:08:58;;;;;;;2.50;1.02;;;12.90;99.90;;;;;;5016066;28;20564;-81
2021/05/12 03:11:24;;;;;;;1.20;1.10;;;12.90;99.90;;;;;;5022437;28;20079;-81
2021/05/12 03:13:50;;;;;;;0.70;0.70;;;12.90;99.90;;;;;;5018484;28;20052;-80
2021/05/12 03:16:16;;;;;;;1.00;0.90;;;12.90;99.90;;;;;;5033083;28;20466;-81
2021/05/12 03:18:41;;;;;;;0.88;0.82;;;13.00;99.90;;;;;;5053967;28;20029;-79
2021/05/12 03:21:07;;;;;;;1.08;0.98;;;12.90;99.90;;;;;;5052424;28;20075;-82
2021/05/12 03:23:33;;;;;;;1.17;1.08;;;13.00;99.90;;;;;;5037395;28;20040;-81
2021/05/12 03:25:59;;;;;;;0.82;0.80;;;13.00;99.90;;;;;;5017459;28;20022;-81
2021/05/12 03:28:25;;;;;;;1.27;1.02;;;13.00;99.90;;;;;;5050155;28;20041;-80
2021/05/12 03:30:50;;;;;;;1.08;1.00;;;13.00;99.90;;;;;;5051366;28;20119;-80
2021/05/12 03:33:16;;;;;;;1.38;1.27;;;13.00;99.90;;;;;;5037072;28;20033;-79
2021/05/12 03:35:42;;;;;;;1.02;1.00;;;13.00;99.90;;;;;;5050590;28;20032;-81
2021/05/12 03:38:10;;;;;;;2.22;1.30;;;13.00;99.90;;;;;;5055344;28;20021;-81
2021/05/12 03:40:37;;;;;;;1.20;1.00;;;13.00;99.90;;;;;;5032141;28;20049;-81
2021/05/12 03:43:03;;;;;;;0.90;0.90;;;13.00;99.90;;;;;;5050472;28;20052;-82
2021/05/12 03:45:29;;;;;;;1.45;1.15;;;13.00;99.90;;;;;;5019865;28;20033;-79
2021/05/12 03:47:56;;;;;;;1.20;1.10;;;12.90;99.90;;;;;;5037279;28;20045;-81
2021/05/12 03:50:23;;;;;;;1.17;1.13;;;12.90;99.90;;;;;;5054930;28;20478;-79
2021/05/12 03:52:49;;;;;;;1.90;1.15;;;12.90;99.90;;;;;;5049228;28;20047;-80
2021/05/12 03:55:16;;;;;;;1.20;1.10;;;12.90;99.90;;;;;;5051749;28;20033;-81
2021/05/12 03:57:42;;;;;;;1.30;1.20;;;13.00;99.90;;;;;;5004833;28;20040;-81
2021/05/12 04:00:11;;;;;;;1.48;1.38;;;12.90;99.90;;;;;;5035235;28;20025;-80
2021/05/12 04:02:41;;;;;;;1.27;0.95;;;12.90;99.90;;;;;;5013577;28;20033;-81
2021/05/12 04:05:08;;;;;;;1.45;1.35;;;13.00;99.90;;;;;;5012480;28;20040;-81
2021/05/12 04:07:34;;;;;;;1.40;1.30;;;13.00;99.90;;;;;;5028607;28;20024;-81
2021/05/12 04:10:00;;;;;;;1.40;1.30;;;13.00;99.90;;;;;;5036294;28;20052;-81
2021/05/12 04:12:26;;;;;;;1.38;1.27;;;13.00;99.90;;;;;;5018139;28;20045;-80
2021/05/12 04:14:52;;;;;;;2.28;1.70;;;13.00;99.90;;;;;;5048898;28;20040;-80
2021/05/12 04:17:18;;;;;;;1.48;1.38;;;13.00;99.90;;;;;;5035099;28;20025;-81
2021/05/12 04:19:44;;;;;;;3.17;1.33;;;13.00;99.90;;;;;;5050921;28;20029;-80
2021/05/12 04:22:10;;;;;;;1.83;1.52;;;13.00;99.90;;;;;;4997521;28;20040;-81
2021/05/12 04:24:36;;;;;;;2.35;1.80;;;13.00;99.90;;;;;;5022480;28;20057;-81
2021/05/12 04:27:02;;;;;;;1.73;1.30;;;13.00;99.90;;;;;;5037100;28;20041;-81
2021/05/12 04:29:28;;;;;;;1.67;1.45;;;13.00;99.90;;;;;;5020677;28;20044;-81
2021/05/12 04:31:54;;;;;;;2.20;1.13;;;13.00;99.90;;;;;;5028683;28;20033;-80
2021/05/12 04:34:20;;;;;;;1.60;1.50;;;13.00;99.90;;;;;;5034560;28;20147;-81
2021/05/12 04:36:46;;;;;;;2.03;1.80;;;13.00;99.90;;;;;;5055047;28;20044;-81
2021/05/12 04:39:12;;;;;;;2.22;1.75;;;13.00;99.90;;;;;;5036538;28;20041;-81
2021/05/12 04:41:37;;;;;;;1.70;1.60;;;13.00;99.90;;;;;;5042512;28;20025;-81
2021/05/12 04:44:04;;;;;;;2.35;2.15;;;13.00;99.90;;;;;;5050410;28;20025;-80
2021/05/12 04:46:29;;;;;;;3.22;2.17;;;13.00;99.90;;;;;;5032831;28;20109;-80
2021/05/12 04:48:55;;;;;;;2.25;1.90;;;13.00;99.90;;;;;;5020564;28;20061;-80
2021/05/12 04:51:22;;;;;;;2.53;2.30;;;13.00;99.90;;;;;;5007849;28;20036;-80
2021/05/12 04:53:48;;;;;;;2.97;2.30;;;13.00;99.90;;;;;;5029882;28;20048;-81
2021/05/12 04:56:15;;;;;;;2.55;2.35;;;13.00;99.90;;;;;;5051184;28;20021;-81
2021/05/12 04:58:40;;;;;;;3.33;2.20;;;13.00;99.90;;;;;;5036846;28;20041;-81
2021/05/12 05:01:06;;;;;;;2.63;2.17;;;13.00;99.90;;;;;;5015779;28;20041;-81
2021/05/12 05:03:34;;;;;;;3.30;2.00;;;13.00;99.90;;;;;;5019727;28;20037;-80
2021/05/12 05:05:59;;;;;;;2.30;2.03;;;13.00;99.90;;;;;;5034504;28;20029;-80
2021/05/12 05:08:28;;;;;;;1.83;1.73;;;13.10;99.90;;;;;;5027572;28;20533;-81
2021/05/12 05:10:54;;;;;;;3.20;2.10;;;13.10;99.90;;;;;;5052316;28;20032;-81
2021/05/12 05:13:20;;;;;;;2.90;2.05;;;13.10;99.90;;;;;;5015807;28;20038;-81
2021/05/12 05:15:45;;;;;;;2.50;2.22;;;13.10;99.90;;;;;;5050800;28;20037;-81
2021/05/12 05:18:12;;;;;;;1.95;1.65;;;13.10;99.90;;;;;;5019997;28;20043;-82
2021/05/12 05:20:38;;;;;;;2.50;2.15;;;13.10;99.90;;;;;;5030458;28;20029;-82
2021/05/12 05:23:07;;;;;;;1.90;1.67;;;13.10;99.90;;;;;;5020506;28;20032;-81
2021/05/12 05:25:33;;;;;;;2.38;2.00;;;13.10;99.90;;;;;;5048845;28;20048;-81
2021/05/12 05:27:59;;;;;;;3.60;2.50;;;13.20;99.90;;;;;;5017452;28;20497;-82
2021/05/12 05:30:25;;;;;;;2.00;1.80;;;13.20;99.90;;;;;;5033823;28;20033;-80
2021/05/12 05:33:09;;;;;;;2.58;2.17;;;13.10;99.90;;;;;;5046426;28;20171;-82
2021/05/12 05:35:53;;;;;;;2.40;2.20;;;13.10;99.90;;;;;;5042680;28;20043;-81
2021/05/12 05:38:38;;;;;;;3.55;2.80;;;13.10;99.90;;;;;;5034204;28;20518;-82
2021/05/12 05:41:22;;;;;;;2.47;2.03;;;13.00;99.90;;;;;;5026163;28;20082;-80
2021/05/12 05:44:06;;;;;;;4.30;1.90;;;13.00;99.90;;;;;;5048098;28;20064;-80
2021/05/12 05:46:50;;;;;;;6.07;2.40;;;13.10;99.90;;;;;;5037332;28;20413;-81
2021/05/12 05:49:35;;;;;;;3.00;2.70;;;13.00;99.90;;;;;;5038100;28;20067;-81
2021/05/12 05:52:20;;;;;;;2.07;1.83;;;13.00;99.90;;;;;;5055135;28;20101;-81
2021/05/12 05:55:04;;;;;;;3.28;2.40;;;13.00;99.90;;;;;;5034996;28;20264;-81
2021/05/12 05:57:50;;;;;;;4.32;2.42;;;13.00;99.90;;;;;;5037403;28;20091;-82
2021/05/12 06:00:35;;;;;;;3.70;2.22;;;13.00;99.90;;;;;;5036326;28;20040;-82
2021/05/12 06:03:01;;;;;;;1.98;1.77;;;13.00;99.90;;;;;;5040792;28;20033;-81
2021/05/12 06:05:49;;;;;;;4.03;2.33;;;13.00;99.90;;;;;;5027144;28;20055;-82
2021/05/12 06:08:33;;;;;;;3.05;1.92;;;13.00;99.90;;;;;;5044984;28;20072;-81
2021/05/12 06:11:18;;;;;;;2.50;2.25;;;13.00;99.90;;;;;;5012142;28;20094;-80
2021/05/12 06:14:02;;;;;;;1.98;1.77;;;13.00;99.90;;;;;;5055019;28;20047;-80
2021/05/12 06:16:47;;;;;;;2.30;1.90;;;13.00;99.90;;;;;;5046033;28;20055;-82
2021/05/12 06:19:31;;;;;;;2.00;1.55;;;13.00;99.90;;;;;;5056493;28;20087;-81
2021/05/12 06:22:16;;;;;;;1.58;1.40;;;13.00;99.90;;;;;;5025066;28;20052;-81
2021/05/12 06:24:59;;;;;;;1.50;1.25;;;13.00;99.90;;;;;;5042400;28;20039;-80
2021/05/12 06:27:44;;;;;;;1.42;1.33;;;13.00;99.90;;;;;;5039972;28;20052;-81
2021/05/12 06:30:28;;;;;;;1.83;1.40;;;13.00;99.90;;;;;;5041934;28;20102;-80
2021/05/12 06:33:13;;;;;;;1.48;1.27;;;13.00;99.90;;;;;;5042779;28;20115;-81
2021/05/12 06:36:06;;;;;;;2.85;1.70;;;13.00;99.90;;;;;;5017527;28;20030;-81
2021/05/12 06:38:51;;;;;;;1.70;1.52;;;13.10;99.90;;;;;;5057066;28;20107;-81
2021/05/12 06:41:16;;;;;;;2.67;1.90;;;13.10;99.90;;;;;;5070267;22;20037;-77
2021/05/12 06:43:45;;;;;;;1.80;1.60;;;13.20;99.90;;;;;;5051461;28;20040;-77
2021/05/12 06:46:11;;;;;;;1.95;1.70;;;13.20;99.90;;;;;;5039136;28;20021;-78
2021/05/12 06:48:36;;;;;;;2.80;2.15;;;13.20;99.90;;;;;;5028285;28;20040;-77
2021/05/12 06:51:02;;;;;;;2.17;1.70;;;13.20;99.90;;;;;;5019101;28;20034;-77
2021/05/12 06:53:30;;;;;;;2.03;1.65;;;13.30;99.90;;;;;;5030101;28;20064;-78
2021/05/12 06:55:57;;;;;;;1.80;1.50;;;13.30;99.90;;;;;;5031024;28;20108;-78
2021/05/12 06:58:23;;;;;;;3.75;2.10;;;13.40;99.90;;;;;;5029434;28;20065;-78
2021/05/12 07:00:51;;;;;;;3.08;2.50;;;13.40;99.90;;;;;;5031295;28;20017;-77
2021/05/12 07:03:18;;;;;;;3.97;2.72;;;13.40;99.90;;;;;;5016435;28;20084;-78
2021/05/12 07:05:44;;;;;;;2.53;1.98;;;13.50;99.90;;;;;;5023939;28;20040;-77
2021/05/12 07:08:09;;;;;;;2.92;2.30;;;13.50;99.90;;;;;;5005282;28;20021;-78
2021/05/12 07:10:36;;;;;;;4.72;3.25;;;13.50;99.90;;;;;;5015258;28;20047;-77
2021/05/12 07:13:02;;;;;;;4.05;3.03;;;13.50;99.90;;;;;;5030023;28;20082;-78
2021/05/12 07:15:27;;;;;;;3.60;2.83;;;13.50;99.90;;;;;;5017660;28;20489;-78
2021/05/12 07:17:53;;;;;;;3.85;2.88;;;13.60;99.90;;;;;;5012147;28;20044;-78
2021/05/12 07:20:19;;;;;;;4.35;2.70;;;13.60;99.90;;;;;;5016463;28;20116;-78
2021/05/12 07:22:45;;;;;;;3.42;2.55;;;13.60;99.90;;;;;;5033931;28;20140;-78
2021/05/12 07:25:12;;;;;;;3.80;2.85;;;13.70;99.90;;;;;;5020603;28;20025;-78
2021/05/12 07:27:38;;;;;;;3.50;2.63;;;13.70;99.90;;;;;;5015322;28;20072;-78
2021/05/12 07:30:06;;;;;;;3.33;2.40;;;13.70;99.90;;;;;;5029335;28;20067;-78
2021/05/12 07:32:32;;;;;;;4.00;2.80;;;13.80;99.90;;;;;;5033367;28;20053;-78
2021/05/12 07:34:58;;;;;;;3.22;2.42;;;13.80;99.90;;;;;;5020289;28;20041;-78
2021/05/12 07:37:24;;;;;;;5.57;2.75;;;13.90;99.90;;;;;;5029419;28;20033;-78
2021/05/12 07:39:51;;;;;;;4.20;2.67;;;13.90;99.90;;;;;;5030509;28;20029;-77
2021/05/12 07:42:19;;;;;;;3.28;2.85;;;14.00;99.90;;;;;;5033162;28;20033;-77
2021/05/12 07:44:46;;;;;;;3.90;2.53;;;14.00;99.90;;;;;;5019066;28;20025;-77
2021/05/12 07:47:12;;;;;;;3.45;2.70;;;14.00;99.90;;;;;;5011939;28;20068;-78
2021/05/12 07:49:38;;;;;;;3.70;2.50;;;14.00;99.90;;;;;;5025473;28;20489;-78
2021/05/12 07:52:07;;;;;;;4.63;2.90;;;14.00;99.90;;;;;;5010392;28;20132;-78
2021/05/12 07:54:33;;;;;;;3.20;2.53;;;14.00;99.90;;;;;;4997514;28;20048;-78
2021/05/12 07:56:59;;;;;;;5.93;3.10;;;14.00;99.90;;;;;;5025567;28;20029;-78
2021/05/12 07:59:24;;;;;;;5.07;3.00;;;14.00;99.90;;;;;;5026312;28;20079;-78
2021/05/12 08:01:50;;;;;;;5.43;3.58;;;14.00;99.90;;;;;;4995922;28;20022;-78
2021/05/12 08:04:16;;;;;;;5.10;3.58;;;14.00;99.90;;;;;;5029015;28;20033;-78
2021/05/12 08:06:41;;;;;;;4.47;3.25;;;14.00;99.90;;;;;;5026971;28;20033;-78
2021/05/12 08:09:09;;;;;;;4.95;3.97;;;14.10;99.90;;;;;;5018405;28;20505;-78
2021/05/12 08:11:35;;;;;;;8.63;3.92;;;14.10;99.90;;;;;;5028061;28;20055;-78
2021/05/12 08:14:02;;;;;;;4.43;3.60;;;14.10;99.90;;;;;;5029115;28;20538;-78
2021/05/12 08:16:28;;;;;;;5.43;3.60;;;14.10;99.90;;;;;;5016568;28;20053;-78
2021/05/12 08:18:54;;;;;;;5.07;3.72;;;14.10;99.90;;;;;;5012259;28;20032;-78
2021/05/12 08:21:19;;;;;;;4.18;3.40;;;14.00;99.90;;;;;;5037252;28;20128;-78
2021/05/12 08:23:45;;;;;;;4.90;3.67;;;14.00;99.90;;;;;;5020843;28;20025;-78
2021/05/12 08:26:11;;;;;;;4.55;3.40;;;14.00;99.90;;;;;;5010675;28;20580;-78
2021/05/12 08:28:41;;;;;;;4.88;3.58;;;14.00;99.90;;;;;;5018282;28;20052;-78
2021/05/12 08:31:07;;;;;;;5.18;3.72;;;14.10;99.90;;;;;;5010506;28;20067;-78
2021/05/12 08:33:34;;;;;;;5.03;3.75;;;14.20;99.90;;;;;;5010918;28;20041;-78
2021/05/12 08:36:00;;;;;;;9.38;4.60;;;14.20;99.90;;;;;;5024651;28;20037;-78
2021/05/12 08:38:25;;;;;;;9.15;4.28;;;14.30;99.90;;;;;;5019491;28;20125;-78
2021/05/12 08:40:53;;;;;;;4.80;3.38;;;14.40;99.90;;;;;;5010072;28;20087;-78
2021/05/12 08:43:20;;;;;;;4.72;3.10;;;14.50;99.90;;;;;;5029054;28;20048;-78
2021/05/12 08:45:46;;;;;;;5.53;3.53;;;14.50;99.90;;;;;;5025599;28;20026;-78
2021/05/12 08:48:17;;;;;;;5.93;3.85;;;14.50;99.90;;;;;;5011334;28;20033;-78
2021/05/12 08:50:44;;;;;;;4.30;3.45;;;14.60;99.90;;;;;;5019438;28;20037;-78
2021/05/12 08:53:10;;;;;;;6.43;3.97;;;14.60;99.90;;;;;;5020272;28;20092;-78
2021/05/12 08:55:37;;;;;;;5.40;3.72;;;14.50;99.90;;;;;;5025258;28;20034;-78
2021/05/12 08:58:04;;;;;;;4.85;3.80;;;14.50;99.90;;;;;;5008421;28;20033;-78
2021/05/12 09:00:30;;;;;;;5.10;3.65;;;14.50;99.90;;;;;;5024287;28;20038;-78
2021/05/12 09:02:58;;;;;;;6.20;4.05;;;14.50;99.90;;;;;;5010337;28;20037;-78
2021/05/12 09:05:25;;;;;;;5.47;3.92;;;14.60;99.90;;;;;;5026972;28;20057;-78
2021/05/12 09:07:51;;;;;;;5.25;3.88;;;14.60;99.90;;;;;;5010014;28;21660;-78
2021/05/12 09:10:18;;;;;;;5.97;4.45;;;14.60;99.90;;;;;;5032710;28;20152;-78
2021/05/12 09:12:48;;;;;;;5.85;4.32;;;14.60;99.90;;;;;;5033702;28;20081;-78
2021/05/12 09:15:17;;;;;;;5.82;3.85;;;14.50;99.90;;;;;;5013277;28;20417;-78
2021/05/12 09:17:48;;;;;;;6.38;3.90;;;14.50;99.90;;;;;;5013621;28;20108;-78
2021/05/12 09:20:20;;;;;;;6.20;3.28;;;14.60;99.90;;;;;;5028418;28;20017;-78
2021/05/12 09:23:08;;;;;;;6.53;4.60;;;14.60;99.90;;;;;;5034118;28;20099;-78
2021/05/12 09:25:36;;;;;;;5.60;3.80;;;14.60;99.90;;;;;;5031529;28;20037;-78
2021/05/12 09:28:16;;;;;;;5.93;3.60;;;14.60;99.90;;;;;;5029323;28;20037;-78
2021/05/12 09:30:43;;;;;;;5.00;3.72;;;14.70;99.90;;;;;;5016901;28;20396;-78
2021/05/12 09:33:25;;;;;;;5.90;4.13;;;14.70;99.90;;;;;;5005288;28;20030;-78
2021/05/12 09:35:50;;;;;;;5.97;3.45;;;14.70;99.90;;;;;;5022769;28;20477;-78
2021/05/12 09:38:22;;;;;;;5.70;3.80;;;14.60;99.90;;;;;;5008117;28;20081;-78
2021/05/12 09:41:08;;;;;;;7.30;4.18;;;14.60;99.90;;;;;;5018792;28;20468;-78
2021/05/12 09:43:34;;;;;;;;;;;14.60;99.90;;;;;;5019289;28;20091;-78
2021/05/12 09:46:26;;;;;;;4.70;3.58;;;14.50;99.90;;;;;;5007919;28;20328;-78
2021/05/12 09:48:58;;;;;;;5.00;3.55;;;14.50;99.90;;;;;;5018347;28;20017;-78
2021/05/12 09:51:25;;;;;;;5.40;3.42;;;14.50;99.90;;;;;;5032358;28;20540;-78
2021/05/12 09:54:19;;;;;;;4.82;3.78;;;14.60;99.90;;;;;;5019839;28;20033;-78
2021/05/12 09:56:52;;;;;;;6.47;3.75;;;14.50;99.90;;;;;;5008164;28;20849;-78
2021/05/12 09:59:20;;;;;;;7.05;3.63;;;14.50;99.90;;;;;;5022275;28;20474;-78
2021/05/12 10:01:51;;;;;;;5.32;3.78;;;14.40;99.90;;;;;;5026114;28;20105;-78
2021/05/12 10:04:20;;;;;;;5.50;3.63;;;14.40;99.90;;;;;;5016153;28;20022;-78
2021/05/12 10:06:45;;;;;;;4.63;3.60;;;14.40;99.90;;;;;;5024833;28;20022;-78
2021/05/12 10:09:22;;;;;;;5.22;3.55;;;14.40;99.90;;;;;;5023211;28;20089;-78
2021/05/12 10:12:06;;;;;;;5.80;3.50;;;14.40;99.90;;;;;;5009811;28;20034;-78
2021/05/12 10:14:33;;;;;;;6.18;3.70;;;14.40;99.90;;;;;;5010594;28;20086;-78
2021/05/12 10:17:00;;;;;;;6.47;3.85;;;14.50;99.90;;;;;;5001572;28;20033;-78
2021/05/12 10:19:26;;;;;;;4.65;3.50;;;14.40;99.90;;;;;;5021295;28;20490;-78
2021/05/12 10:21:52;;;;;;;4.22;3.60;;;14.40;99.90;;;;;;5016998;28;20080;-79
2021/05/12 10:24:17;;;;;;;5.88;3.40;;;14.40;99.90;;;;;;5032162;28;20033;-80
2021/05/12 10:26:44;;;;;;;5.65;3.65;;;14.40;99.90;;;;;;5008206;28;20037;-78
2021/05/12 10:29:13;;;;;;;4.45;3.45;;;14.40;99.90;;;;;;5024442;28;20726;-78
2021/05/12 10:31:39;;;;;;;6.63;3.53;;;14.30;99.90;;;;;;5024867;28;20064;-78
2021/05/12 10:34:06;;;;;;;4.97;4.28;;;14.30;99.90;;;;;;5015076;28;20710;-78
2021/05/12 10:36:31;;;;;;;4.25;3.17;;;14.30;99.90;;;;;;5025135;28;20033;-78
2021/05/12 10:39:01;;;;;;;4.90;3.50;;;14.30;99.90;;;;;;5021059;28;20500;-78
2021/05/12 10:41:47;;;;;;;4.68;3.78;;;14.30;99.90;;;;;;5029401;28;20128;-78
2021/05/12 10:44:20;;;;;;;4.22;3.10;;;14.30;99.90;;;;;;5016077;28;20064;-78
2021/05/12 10:47:19;;;;;;;4.38;3.42;;;14.40;99.90;;;;;;5011120;28;20044;-78
2021/05/12 10:49:53;;;;;;;4.15;2.97;;;14.30;99.90;;;;;;5015085;28;20068;-78
2021/05/12 10:52:19;;;;;;;4.28;3.42;;;14.30;99.90;;;;;;5009411;28;20544;-78
2021/05/12 10:54:52;;;;;;;4.20;3.40;;;14.30;99.90;;;;;;5010557;28;20030;-78
2021/05/12 10:57:49;;;;;;;4.32;3.30;;;14.40;99.90;;;;;;5022475;28;20034;-78
2021/05/12 11:00:17;;;;;;;4.57;3.65;;;14.40;99.90;;;;;;5027876;28;20022;-78
2021/05/12 11:03:03;;;;;;;4.63;3.50;;;14.40;99.90;;;;;;5027272;28;20025;-78
2021/05/12 11:05:56;;;;;;;5.33;3.53;;;14.50;99.90;;;;;;5026044;28;20022;-78
2021/05/12 11:08:22;;;;;;;4.43;3.40;;;14.50;99.90;;;;;;5021842;28;20048;-78
2021/05/12 11:11:06;;;;;;;4.70;3.47;;;14.50;99.90;;;;;;5028006;28;20144;-78
2021/05/12 11:13:34;;;;;;;4.93;3.58;;;14.50;99.90;;;;;;5028788;28;20033;-78
2021/05/12 11:16:02;;;;;;;7.75;4.60;;;14.50;99.90;;;;;;5027675;28;20031;-78
2021/05/12 11:18:34;;;;;;;5.72;3.65;;;14.60;99.90;;;;;;5022210;28;20417;-78
2021/05/12 11:21:36;;;;;;;6.80;4.30;;;14.70;99.90;;;;;;5027058;28;20396;-78
2021/05/12 11:24:06;;;;;;;4.65;3.38;;;14.70;99.90;;;;;;5030318;28;20029;-78
2021/05/12 11:31:07;;;;;;;5.10;4.05;;;14.80;99.90;;;;;;5020770;28;20022;-78
2021/05/12 11:31:55;;;;;;;7.47;3.42;;;14.80;99.90;;;;;;5027671;28;20029;-78
2021/05/12 11:34:21;;;;;;;5.80;3.58;;;14.70;99.90;;;;;;4994952;28;20041;-78
2021/05/12 11:36:47;;;;;;;4.75;3.83;;;14.70;99.90;;;;;;5027484;28;20045;-78
2021/05/12 11:39:13;;;;;;;5.65;4.07;;;14.70;99.90;;;;;;5027410;28;20457;-79
2021/05/12 11:41:40;;;;;;;5.82;4.32;;;14.70;99.90;;;;;;5028032;28;20041;-78
2021/05/12 11:44:07;;;;;;;5.82;4.30;;;14.70;99.90;;;;;;5029625;28;20026;-78
2021/05/12 11:46:39;;;;;;;4.88;3.60;;;14.70;99.90;;;;;;5026649;28;20044;-80
2021/05/12 11:49:11;;;;;;;5.30;4.22;;;14.60;99.90;;;;;;5026548;28;20086;-78
2021/05/12 11:51:45;;;;;;;7.07;4.10;;;14.60;99.90;;;;;;5025897;28;20033;-78
2021/05/12 11:54:18;;;;;;;4.18;3.03;;;14.50;99.90;;;;;;5026351;28;20059;-78
2021/05/12 11:56:53;;;;;;;4.70;3.80;;;14.50;99.90;;;;;;5021202;28;20044;-80
2021/05/12 11:59:23;;;;;;;4.78;3.78;;;14.40;99.90;;;;;;5009287;28;20034;-78
2021/05/12 12:01:56;;;;;;;5.60;3.95;;;14.40;99.90;;;;;;5027915;28;20091;-80
2021/05/12 12:04:30;;;;;;;5.20;4.03;;;14.40;99.90;;;;;;5029152;28;20074;-78
2021/05/12 12:06:57;;;;;;;7.07;4.43;;;14.40;99.90;;;;;;5026418;28;20057;-78
2021/05/12 12:09:23;;;;;;;5.22;3.50;;;14.40;99.90;;;;;;5028163;28;20025;-79
2021/05/12 12:11:49;;;;;;;4.88;3.55;;;14.40;99.90;;;;;;5028166;28;20052;-78
2021/05/12 12:14:16;;;;;;;4.13;3.67;;;14.30;99.90;;;;;;5012395;28;20481;-78
2021/05/12 12:16:46;;;;;;;5.00;3.70;;;14.30;99.90;;;;;;5010708;28;20049;-79
2021/05/12 12:19:17;;;;;;;5.15;3.42;;;14.30;99.90;;;;;;5031708;28;20563;-79
2021/05/12 12:21:49;;;;;;;5.15;3.47;;;14.20;99.90;;;;;;5030176;28;20124;-79
2021/05/12 12:24:17;;;;;;;5.65;3.60;;;14.10;99.90;;;;;;5030773;28;20029;-79
2021/05/12 12:26:47;;;;;;;4.57;3.75;;;14.00;99.90;;;;;;5008037;28;20504;-79
2021/05/12 12:29:14;;;;;;;3.80;3.08;;;14.00;99.90;;;;;;4999329;28;20040;-79
2021/05/12 12:31:46;;;;;;;4.47;3.42;;;14.00;99.90;;;;;;5012260;28;20026;-79
2021/05/12 12:34:19;;;;;;;3.75;3.22;;;14.00;99.90;;;;;;5029019;28;20033;-79
2021/05/12 12:37:04;;;;;;;4.05;3.40;;;13.90;99.90;;;;;;5006927;28;20026;-79
2021/05/12 12:39:50;;;;;;;4.10;3.30;;;14.00;99.90;;;;;;5026437;28;20112;-79
2021/05/12 12:42:29;;;;;;;5.60;3.40;;;14.00;99.90;;;;;;5047780;22;20121;-79
2021/05/12 12:44:57;;;;;;;4.03;3.63;;;14.00;99.90;;;;;;5032980;28;20027;-80
2021/05/12 12:47:23;;;;;;;4.18;2.95;;;14.10;99.90;;;;;;5010867;28;20034;-79
2021/05/12 12:50:00;;;;;;;3.63;2.90;;;14.10;99.90;;;;;;5023721;28;20037;-79
2021/05/12 12:52:31;;;;;;;3.47;2.80;;;14.20;99.90;;;;;;5006427;28;20033;-79
2021/05/12 12:55:10;;;;;;;3.45;3.15;;;14.20;99.90;;;;;;5008914;28;20109;-80
2021/05/12 12:57:45;;;;;;;3.47;2.70;;;14.10;99.90;;;;;;5027098;28;20052;-79
2021/05/12 13:00:17;;;;;;;3.53;2.67;;;14.10;99.90;;;;;;5024725;28;20426;-80
2021/05/12 13:03:05;;;;;;;4.03;2.83;;;14.10;99.90;;;;;;4985964;28;20113;-81
2021/05/12 13:05:47;;;;;;;3.35;2.85;;;14.10;99.90;;;;;;5021049;28;20095;-78
2021/05/12 13:08:37;;;;;;;4.05;3.00;;;14.00;99.90;;;;;;4994225;28;20083;-79
2021/05/12 13:11:05;;;;;;;3.97;2.38;;;14.00;99.90;;;;;;5007100;28;20636;-78
2021/05/12 13:13:35;;;;;;;3.05;2.70;;;13.90;99.90;;;;;;5019626;28;20033;-80
2021/05/12 13:16:34;;;;;;;4.35;3.05;;;13.80;99.90;;;;;;5003219;28;20117;-77
2021/05/12 13:19:04;;;;;;;3.10;2.80;;;13.70;99.90;;;;;;4989585;28;20054;-78
2021/05/12 13:21:36;;;;;;;2.83;2.45;;;13.70;99.90;;;;;;5011256;28;20048;-77
2021/05/12 13:24:07;;;;;;;6.13;2.80;;;13.70;99.90;;;;;;5022844;28;20026;-80
2021/05/12 13:26:42;;;;;;;4.28;3.30;;;13.70;99.90;;;;;;5026138;28;20037;-78
2021/05/12 13:29:09;;;;;;;4.00;3.10;;;13.60;99.90;;;;;;5030643;28;20083;-77
2021/05/12 13:31:36;;;;;;;3.72;3.20;;;13.60;99.90;;;;;;5009290;28;20030;-79
2021/05/12 13:34:02;;;;;;;4.00;3.40;;;13.60;99.90;;;;;;4985843;28;20112;-80